Time;durP1;ratioP1;P1;durP2;ratioP2;P2;SDS_P1;SDS_P2;PMS_P1;PMS_P2;Temp;Humidity;BMP_temperature;BMP_pressure;BME280_temperature;BME280_humidity;BME280_pressure;Samples;Min_cycle;Max_cycle;Signal;HPM_P1;HPM_P2
2022/04/17 00:01:39;;;;;;;3.47;1.63;;;6.80;90.50;;;;;;5060360;28;20162;-71
2022/04/17 00:04:05;;;;;;;5.32;1.60;;;6.80;90.30;;;;;;5057419;28;20037;-71
2022/04/17 00:06:30;;;;;;;2.95;1.48;;;6.80;90.50;;;;;;5066538;28;20037;-71
2022/04/17 00:08:57;;;;;;;2.90;1.40;;;6.80;90.50;;;;;;5056976;28;20048;-71
2022/04/17 00:11:23;;;;;;;3.65;1.67;;;6.80;90.20;;;;;;5031768;28;20041;-71
2022/04/17 00:13:49;;;;;;;2.92;1.60;;;6.90;90.20;;;;;;5059379;28;22535;-71
2022/04/17 00:16:14;;;;;;;3.25;1.85;;;6.90;90.30;;;;;;5067889;28;20036;-71
2022/04/17 00:18:40;;;;;;;5.80;1.77;;;6.80;90.00;;;;;;5062711;28;20493;-71
2022/04/17 00:21:09;;;;;;;3.95;1.90;;;6.80;90.10;;;;;;5034951;28;20032;-71
2022/04/17 00:23:34;;;;;;;3.35;1.73;;;6.90;89.90;;;;;;5057737;28;20036;-71
2022/04/17 00:26:00;;;;;;;4.15;1.70;;;6.90;90.00;;;;;;5061534;28;20379;-71
2022/04/17 00:28:27;;;;;;;3.65;1.70;;;6.90;90.00;;;;;;5038351;28;20048;-71
2022/04/17 00:30:52;;;;;;;2.70;1.42;;;6.90;90.00;;;;;;5065260;28;20036;-71
2022/04/17 00:33:18;;;;;;;3.75;1.65;;;6.80;90.00;;;;;;5057075;28;20051;-71
2022/04/17 00:35:45;;;;;;;3.88;2.00;;;6.90;89.80;;;;;;5049400;28;20566;-71
2022/04/17 00:38:11;;;;;;;2.85;1.73;;;6.90;90.10;;;;;;5046266;28;20156;-71
2022/04/17 00:40:36;;;;;;;3.03;1.70;;;6.90;90.10;;;;;;5059046;28;20052;-72
2022/04/17 00:43:17;;;;;;;5.07;1.88;;;6.90;90.10;;;;;;5062651;28;20025;-71
2022/04/17 00:45:42;;;;;;;5.07;1.60;;;6.80;90.10;;;;;;5065044;28;20524;-71
2022/04/17 00:48:08;;;;;;;2.53;1.65;;;6.80;90.30;;;;;;5054234;28;20064;-71
2022/04/17 00:50:34;;;;;;;4.50;1.95;;;6.80;90.30;;;;;;5061800;28;20045;-71
2022/04/17 00:53:01;;;;;;;4.43;2.28;;;6.80;90.50;;;;;;5058386;28;20071;-71
2022/04/17 00:55:27;;;;;;;3.33;1.77;;;6.80;90.40;;;;;;5064066;28;20056;-71
2022/04/17 00:57:53;;;;;;;2.28;1.33;;;6.70;90.50;;;;;;5052157;28;20098;-71
2022/04/17 01:00:19;;;;;;;3.47;2.40;;;6.70;90.50;;;;;;5059767;28;20037;-71
2022/04/17 01:02:44;;;;;;;3.35;1.30;;;6.70;90.80;;;;;;5062031;28;20074;-71
2022/04/17 01:05:10;;;;;;;5.07;1.98;;;6.70;90.90;;;;;;5041679;28;20078;-71
2022/04/17 01:07:37;;;;;;;3.60;1.83;;;6.60;90.90;;;;;;5049957;28;20040;-71
2022/04/17 01:10:04;;;;;;;3.88;2.00;;;6.70;91.20;;;;;;5047370;28;20044;-71
2022/04/17 01:12:30;;;;;;;5.32;1.90;;;6.60;91.20;;;;;;5054112;28;20485;-71
2022/04/17 01:14:55;;;;;;;4.38;2.05;;;6.60;91.30;;;;;;5055076;28;20046;-71
2022/04/17 01:17:21;;;;;;;3.33;1.60;;;6.60;91.20;;;;;;5057302;28;20547;-71
2022/04/17 01:19:47;;;;;;;3.05;2.00;;;6.60;91.50;;;;;;5057244;28;20440;-71
2022/04/17 01:22:13;;;;;;;4.13;2.25;;;6.50;91.60;;;;;;5055408;28;20036;-72
2022/04/17 01:27:24;;;;;;;4.15;2.20;;;6.50;91.70;;;;;;5056094;28;20683;-71
2022/04/17 01:29:53;;;;;;;5.15;1.95;;;6.50;91.60;;;;;;5055149;28;20060;-71
2022/04/17 01:32:19;;;;;;;3.95;1.95;;;6.50;91.50;;;;;;5055416;28;20071;-71
2022/04/17 01:34:45;;;;;;;6.38;2.38;;;6.50;91.70;;;;;;5057405;28;20060;-71
2022/04/17 01:37:10;;;;;;;3.63;2.20;;;6.50;91.60;;;;;;5064949;28;20091;-71
2022/04/17 01:39:36;;;;;;;4.28;2.28;;;6.50;91.60;;;;;;5052383;28;20045;-71
2022/04/17 01:42:02;;;;;;;3.95;1.83;;;6.50;91.80;;;;;;5051072;28;20043;-71
2022/04/17 01:44:28;;;;;;;3.33;1.98;;;6.50;91.80;;;;;;5063742;28;20162;-71
2022/04/17 01:46:55;;;;;;;4.55;2.33;;;6.40;91.80;;;;;;5056956;28;20041;-71
2022/04/17 01:49:21;;;;;;;4.30;1.98;;;6.40;91.90;;;;;;5052049;28;20083;-71
2022/04/17 01:51:48;;;;;;;5.45;2.40;;;6.40;91.90;;;;;;5052865;28;20091;-71
2022/04/17 01:54:18;;;;;;;6.38;2.28;;;6.40;91.90;;;;;;5059105;28;20132;-71
2022/04/17 01:56:48;;;;;;;3.63;2.08;;;6.40;91.90;;;;;;5044366;28;20040;-71
2022/04/17 01:59:15;;;;;;;4.35;2.72;;;6.30;92.00;;;;;;5058044;28;20094;-71
2022/04/17 02:01:41;;;;;;;4.20;2.17;;;6.40;92.10;;;;;;5046678;28;20124;-71
2022/04/17 02:04:08;;;;;;;4.25;2.40;;;6.30;92.20;;;;;;5040729;28;20127;-71
2022/04/17 02:06:34;;;;;;;4.30;2.45;;;6.30;92.20;;;;;;5031844;28;20037;-71
2022/04/17 02:09:00;;;;;;;4.47;2.88;;;6.30;92.10;;;;;;5055340;28;20044;-71
2022/04/17 02:11:27;;;;;;;4.28;2.25;;;6.30;92.20;;;;;;5048501;28;20047;-71
2022/04/17 02:13:53;;;;;;;4.40;2.20;;;6.30;92.30;;;;;;5058109;28;20119;-71
2022/04/17 02:16:19;;;;;;;4.97;2.80;;;6.20;92.50;;;;;;5050268;28;20036;-71
2022/04/17 02:18:49;;;;;;;3.65;2.08;;;6.30;92.50;;;;;;5055183;28;20123;-71
2022/04/17 02:21:17;;;;;;;4.05;2.15;;;6.20;92.40;;;;;;5053526;28;20560;-71
2022/04/17 02:23:44;;;;;;;3.42;1.98;;;6.20;92.50;;;;;;5059134;28;20064;-71
2022/04/17 02:26:11;;;;;;;2.85;1.88;;;6.20;92.50;;;;;;5039953;28;20039;-71
2022/04/17 02:28:38;;;;;;;3.85;1.95;;;6.20;92.50;;;;;;5047912;28;20071;-71
2022/04/17 02:31:05;;;;;;;6.75;2.60;;;6.10;92.80;;;;;;5037100;28;20054;-71
2022/04/17 02:33:31;;;;;;;4.93;1.77;;;6.10;92.70;;;;;;5057618;28;20040;-71
2022/04/17 02:35:57;;;;;;;2.67;1.80;;;6.00;92.70;;;;;;5053652;28;20036;-71
2022/04/17 02:38:23;;;;;;;2.42;2.00;;;6.00;92.80;;;;;;5063363;28;20056;-71
2022/04/17 02:40:49;;;;;;;3.33;2.15;;;5.90;93.10;;;;;;5040713;28;20073;-71
2022/04/17 02:43:14;;;;;;;4.88;2.28;;;5.80;93.20;;;;;;5057738;28;20040;-71
2022/04/17 02:45:40;;;;;;;4.18;2.28;;;5.70;93.30;;;;;;5062599;28;20024;-71
2022/04/17 02:48:06;;;;;;;4.32;1.70;;;5.70;93.50;;;;;;5062058;28;20049;-71
2022/04/17 02:50:32;;;;;;;5.13;2.55;;;5.60;93.70;;;;;;5031328;28;20083;-71
2022/04/17 02:52:57;;;;;;;3.55;2.13;;;5.50;94.00;;;;;;5056574;28;20040;-71
2022/04/17 02:55:23;;;;;;;3.50;2.33;;;5.50;94.20;;;;;;5063198;28;20110;-71
2022/04/17 02:57:49;;;;;;;4.63;2.47;;;5.40;94.50;;;;;;5047668;28;20056;-71
2022/04/17 03:00:15;;;;;;;4.32;2.60;;;5.30;94.80;;;;;;5061983;28;20043;-71
2022/04/17 03:05:37;;;;;;;4.80;2.53;;;5.20;95.60;;;;;;5056719;28;20044;-71
2022/04/17 03:08:09;;;;;;;4.40;2.40;;;5.10;95.80;;;;;;5053425;28;20443;-71
2022/04/17 03:10:36;;;;;;;3.95;1.88;;;5.00;96.30;;;;;;5031973;28;20481;-72
2022/04/17 03:13:03;;;;;;;3.40;2.05;;;5.00;96.20;;;;;;5058791;28;20044;-71
2022/04/17 03:15:28;;;;;;;6.30;2.08;;;5.00;96.40;;;;;;5063188;28;20460;-71
2022/04/17 03:17:54;;;;;;;2.92;2.08;;;5.00;96.30;;;;;;5051787;28;20052;-71
2022/04/17 03:20:20;;;;;;;5.07;2.53;;;4.90;96.60;;;;;;5046226;28;20029;-71
2022/04/17 03:22:45;;;;;;;3.65;2.10;;;4.90;96.30;;;;;;5052552;28;20188;-71
2022/04/17 03:25:11;;;;;;;4.68;2.50;;;4.90;96.50;;;;;;5063781;28;20243;-71
2022/04/17 03:27:37;;;;;;;3.95;2.50;;;4.80;96.60;;;;;;5060354;28;20060;-71
2022/04/17 03:30:03;;;;;;;5.55;3.13;;;4.80;96.70;;;;;;5056241;28;20036;-71
2022/04/17 03:32:29;;;;;;;4.35;2.33;;;4.70;96.80;;;;;;5044740;28;20635;-71
2022/04/17 03:34:55;;;;;;;4.85;2.63;;;4.70;97.00;;;;;;5045159;28;20039;-71
2022/04/17 03:37:20;;;;;;;3.30;2.13;;;4.70;97.00;;;;;;5056769;28;20443;-71
2022/04/17 03:39:48;;;;;;;3.92;2.22;;;4.60;97.10;;;;;;5051457;28;20611;-71
2022/04/17 03:42:14;;;;;;;3.72;2.30;;;4.60;97.60;;;;;;5065873;28;20149;-70
2022/04/17 03:44:40;;;;;;;3.75;2.83;;;4.60;97.60;;;;;;5062054;28;20036;-71
2022/04/17 03:47:06;;;;;;;6.70;3.10;;;4.60;97.60;;;;;;5055211;28;20040;-71
2022/04/17 03:49:32;;;;;;;6.82;3.13;;;4.60;97.60;;;;;;5060914;28;20397;-71
2022/04/17 03:52:00;;;;;;;4.35;2.60;;;4.50;97.80;;;;;;5054626;28;20041;-71
2022/04/17 03:54:26;;;;;;;5.35;3.20;;;4.60;97.80;;;;;;5055593;28;20029;-71
2022/04/17 03:56:52;;;;;;;3.80;2.17;;;4.50;97.70;;;;;;5066199;28;20478;-71
2022/04/17 03:59:18;;;;;;;3.40;2.45;;;4.50;97.70;;;;;;5064380;28;20493;-71
2022/04/17 04:01:46;;;;;;;4.32;2.42;;;4.50;97.70;;;;;;5058978;28;20041;-70
2022/04/17 04:04:12;;;;;;;5.07;2.72;;;4.50;97.80;;;;;;5053550;28;20351;-71
2022/04/17 04:06:37;;;;;;;3.00;1.90;;;4.50;97.60;;;;;;5057418;28;20123;-70
2022/04/17 04:09:03;;;;;;;6.13;3.05;;;4.40;97.70;;;;;;5063420;28;20207;-71
2022/04/17 04:11:29;;;;;;;5.65;2.47;;;4.40;97.90;;;;;;5051125;28;20033;-70
2022/04/17 04:13:55;;;;;;;5.32;2.83;;;4.40;97.90;;;;;;5059750;28;20453;-71
2022/04/17 04:16:22;;;;;;;3.95;2.33;;;4.30;98.00;;;;;;5035716;28;20507;-71
2022/04/17 04:18:47;;;;;;;5.93;2.67;;;4.30;98.20;;;;;;5062511;28;20123;-71
2022/04/17 04:21:13;;;;;;;3.38;1.92;;;4.30;98.10;;;;;;5064591;28;20101;-71
2022/04/17 04:23:39;;;;;;;5.88;3.03;;;4.30;98.20;;;;;;5050185;28;20072;-71
2022/04/17 04:26:05;;;;;;;5.15;3.20;;;4.30;98.20;;;;;;5066299;28;20044;-71
2022/04/17 04:28:34;;;;;;;4.13;2.53;;;4.20;98.20;;;;;;5059461;28;20538;-71
2022/04/17 04:31:05;;;;;;;5.10;2.65;;;4.20;98.30;;;;;;5061388;28;20086;-71
2022/04/17 04:33:31;;;;;;;4.32;2.85;;;4.10;98.60;;;;;;5062813;28;20035;-71
2022/04/17 04:35:59;;;;;;;5.47;2.95;;;4.10;98.60;;;;;;5054523;28;20490;-71
2022/04/17 04:38:25;;;;;;;8.75;3.15;;;4.10;98.80;;;;;;5066796;28;20048;-71
2022/04/17 04:40:51;;;;;;;4.63;2.72;;;4.10;98.60;;;;;;5058234;28;20362;-71
2022/04/17 04:43:17;;;;;;;4.68;3.15;;;4.10;98.80;;;;;;5065810;28;20450;-71
2022/04/17 04:49:29;;;;;;;5.88;2.17;;;4.00;99.00;;;;;;5063102;28;20098;-71
2022/04/17 04:51:15;;;;;;;4.68;2.30;;;4.10;98.90;;;;;;5060916;28;20068;-71
2022/04/17 04:53:41;;;;;;;5.05;2.50;;;4.20;99.20;;;;;;5042986;28;20247;-71
2022/04/17 04:56:08;;;;;;;6.03;3.08;;;4.00;99.10;;;;;;5060273;28;20045;-71
2022/04/17 04:58:34;;;;;;;5.35;2.85;;;4.00;99.10;;;;;;5039756;28;20036;-71
2022/04/17 05:00:59;;;;;;;4.18;2.15;;;4.00;99.40;;;;;;5064789;28;20043;-71
2022/04/17 05:03:26;;;;;;;4.28;3.00;;;4.00;99.40;;;;;;5060403;28;20037;-71
2022/04/17 05:05:52;;;;;;;4.00;2.53;;;3.90;99.60;;;;;;5058716;28;20081;-71
2022/04/17 05:08:20;;;;;;;4.70;2.88;;;3.90;99.70;;;;;;5060581;28;20139;-71
2022/04/17 05:10:47;;;;;;;4.47;2.30;;;4.00;99.90;;;;;;5061270;28;20065;-71
2022/04/17 05:13:13;;;;;;;4.55;2.65;;;4.00;99.70;;;;;;5060024;28;20374;-71
2022/04/17 05:15:39;;;;;;;5.05;2.80;;;4.00;99.80;;;;;;5058224;28;20040;-71
2022/04/17 05:18:05;;;;;;;4.93;3.15;;;4.10;99.90;;;;;;5057025;28;20087;-71
2022/04/17 05:20:32;;;;;;;4.88;2.83;;;4.10;99.90;;;;;;5062149;28;20398;-71
2022/04/17 05:23:03;;;;;;;6.35;2.85;;;4.20;99.80;;;;;;5058071;28;20068;-71
2022/04/17 05:25:30;;;;;;;4.35;2.65;;;4.20;99.90;;;;;;5031703;28;20082;-71
2022/04/17 05:27:55;;;;;;;4.20;2.47;;;4.30;99.90;;;;;;5051683;28;20045;-71
2022/04/17 05:30:21;;;;;;;6.47;3.28;;;4.30;99.60;;;;;;5058901;28;20043;-71
2022/04/17 05:32:47;;;;;;;4.88;2.88;;;4.40;99.90;;;;;;5033454;28;20048;-71
2022/04/17 05:35:12;;;;;;;6.93;3.53;;;4.40;99.90;;;;;;5053078;28;20055;-71
2022/04/17 05:37:38;;;;;;;4.47;2.85;;;4.40;99.80;;;;;;5051363;28;20050;-71
2022/04/17 05:40:04;;;;;;;8.48;3.15;;;4.50;99.80;;;;;;5059621;28;20143;-71
2022/04/17 05:42:30;;;;;;;9.00;3.13;;;4.60;99.90;;;;;;5035255;28;20028;-71
2022/04/17 05:44:56;;;;;;;5.95;3.03;;;4.60;99.90;;;;;;5050438;28;20102;-71
2022/04/17 05:47:21;;;;;;;6.43;2.95;;;4.60;99.80;;;;;;5034082;28;20072;-71
2022/04/17 05:49:47;;;;;;;6.00;3.22;;;4.60;99.70;;;;;;5058377;28;20041;-71
2022/04/17 05:52:13;;;;;;;6.03;3.75;;;4.70;99.60;;;;;;5063822;28;20083;-71
2022/04/17 05:54:43;;;;;;;6.95;3.22;;;4.80;99.70;;;;;;5058105;28;20025;-71
2022/04/17 05:57:09;;;;;;;6.70;3.72;;;4.90;99.30;;;;;;5056513;28;20032;-71
2022/04/17 05:59:36;;;;;;;6.53;3.28;;;4.90;99.10;;;;;;5063298;28;20427;-71
2022/04/17 06:02:03;;;;;;;5.85;3.17;;;5.00;98.80;;;;;;5052715;28;20037;-71
2022/04/17 06:04:28;;;;;;;7.72;3.17;;;5.10;98.60;;;;;;5056196;28;20450;-71
2022/04/17 06:06:54;;;;;;;4.53;2.72;;;5.20;98.50;;;;;;5053945;28;20074;-71
2022/04/17 06:09:19;;;;;;;5.97;3.33;;;5.30;98.10;;;;;;5053806;28;20049;-71
2022/04/17 06:11:45;;;;;;;7.55;3.30;;;5.30;97.80;;;;;;5039508;28;20068;-71
2022/04/17 06:14:10;;;;;;;5.38;3.47;;;5.40;97.50;;;;;;5063161;28;20562;-71
2022/04/17 06:16:36;;;;;;;7.72;3.75;;;5.40;97.40;;;;;;5059859;28;20071;-71
2022/04/17 06:19:02;;;;;;;6.35;2.78;;;5.50;97.40;;;;;;5063375;28;20044;-71
2022/04/17 06:21:28;;;;;;;5.03;3.42;;;5.50;97.70;;;;;;5055965;28;20029;-71
2022/04/17 06:23:54;;;;;;;6.97;3.72;;;5.60;97.30;;;;;;5056565;28;20169;-71
2022/04/17 06:26:20;;;;;;;6.97;3.95;;;5.60;97.20;;;;;;5048021;28;20069;-71
2022/04/17 06:28:45;;;;;;;9.85;3.92;;;5.70;97.20;;;;;;5062406;28;20561;-71
2022/04/17 06:31:11;;;;;;;5.75;3.03;;;5.70;97.30;;;;;;5050436;28;20230;-71
2022/04/17 06:33:36;;;;;;;6.22;3.55;;;5.80;97.10;;;;;;5048279;28;20033;-71
2022/04/17 06:36:02;;;;;;;8.48;4.13;;;5.90;97.40;;;;;;5043325;28;20040;-71
2022/04/17 06:38:28;;;;;;;6.07;3.83;;;5.90;97.20;;;;;;5062677;28;20040;-71
2022/04/17 06:40:54;;;;;;;4.63;2.95;;;6.00;97.30;;;;;;5057857;28;20494;-70
2022/04/17 06:43:19;;;;;;;4.90;3.05;;;6.00;97.00;;;;;;5045547;28;20468;-71
2022/04/17 06:45:45;;;;;;;6.45;3.67;;;6.10;97.00;;;;;;5054080;28;20045;-71
2022/04/17 06:48:16;;;;;;;5.30;3.25;;;6.20;96.90;;;;;;5062568;28;20071;-71
2022/04/17 06:50:42;;;;;;;8.70;4.13;;;6.30;96.80;;;;;;5063699;28;20048;-71
2022/04/17 06:53:08;;;;;;;5.32;3.72;;;6.30;96.60;;;;;;5040597;28;20438;-71
2022/04/17 06:55:34;;;;;;;6.45;3.15;;;6.50;96.20;;;;;;5057949;28;20080;-71
2022/04/17 06:57:59;;;;;;;4.72;3.33;;;6.60;96.10;;;;;;5030457;28;20041;-71
2022/04/17 07:00:25;;;;;;;8.52;4.03;;;6.70;96.20;;;;;;5046999;28;20124;-71
2022/04/17 07:02:50;;;;;;;6.60;3.17;;;6.70;96.10;;;;;;5058285;28;20037;-71
2022/04/17 07:05:16;;;;;;;7.57;3.28;;;6.80;95.70;;;;;;5052693;28;20041;-71
2022/04/17 07:07:42;;;;;;;5.22;3.13;;;6.90;95.50;;;;;;5046703;28;20048;-71
2022/04/17 07:10:09;;;;;;;4.88;3.15;;;6.90;95.60;;;;;;5059233;28;20029;-71
2022/04/17 07:12:35;;;;;;;6.03;3.35;;;7.10;95.70;;;;;;5047463;28;20032;-71
2022/04/17 07:15:02;;;;;;;5.93;3.38;;;7.10;95.50;;;;;;5063595;28;20082;-71
2022/04/17 07:17:35;;;;;;;4.30;3.08;;;7.10;95.50;;;;;;5054273;28;20044;-71
2022/04/17 07:20:02;;;;;;;6.55;3.72;;;7.30;95.40;;;;;;5061700;28;20086;-71
2022/04/17 07:22:28;;;;;;;4.40;2.80;;;7.30;95.40;;;;;;5058457;28;20502;-71
2022/04/17 07:24:54;;;;;;;5.32;3.03;;;7.40;95.20;;;;;;5042068;28;20033;-71
2022/04/17 07:27:20;;;;;;;6.60;3.70;;;7.40;95.20;;;;;;5061387;28;20024;-71
2022/04/17 07:29:49;;;;;;;7.28;3.22;;;7.50;95.00;;;;;;5063658;28;20098;-71
2022/04/17 07:32:14;;;;;;;5.22;3.13;;;7.50;94.80;;;;;;5043992;28;20032;-71
2022/04/17 07:34:40;;;;;;;4.40;2.75;;;7.60;94.60;;;;;;5061804;28;20287;-71
2022/04/17 07:37:06;;;;;;;8.15;3.17;;;7.70;94.80;;;;;;5058821;28;20056;-71
2022/04/17 07:39:31;;;;;;;6.05;3.13;;;7.70;94.60;;;;;;5055345;28;20052;-71
2022/04/17 07:41:59;;;;;;;6.93;3.00;;;7.80;94.30;;;;;;5058505;28;20071;-71
2022/04/17 07:44:26;;;;;;;4.65;2.45;;;7.80;94.70;;;;;;5046762;28;20061;-72
2022/04/17 07:46:52;;;;;;;4.25;2.65;;;7.90;94.30;;;;;;5043893;28;20393;-71
2022/04/17 07:49:18;;;;;;;3.85;2.55;;;8.00;94.00;;;;;;5061407;28;20037;-71
2022/04/17 07:51:44;;;;;;;4.72;2.38;;;8.00;94.00;;;;;;5056594;28;20036;-71
2022/04/17 07:54:09;;;;;;;3.47;2.35;;;8.10;93.60;;;;;;5057868;28;20089;-72
2022/04/17 07:56:36;;;;;;;4.93;2.83;;;8.20;93.80;;;;;;5060489;28;20048;-72
2022/04/17 07:59:02;;;;;;;4.22;2.53;;;8.20;93.50;;;;;;5046668;28;20049;-71
2022/04/17 08:01:30;;;;;;;3.67;2.35;;;8.20;93.50;;;;;;5054646;28;20036;-71
2022/04/17 08:03:56;;;;;;;6.10;2.80;;;8.30;93.70;;;;;;5056647;28;20397;-71
2022/04/17 08:06:22;;;;;;;5.43;2.38;;;8.40;93.20;;;;;;5058411;28;20047;-71
2022/04/17 08:08:51;;;;;;;3.33;2.28;;;8.40;93.10;;;;;;5042985;28;20037;-71
2022/04/17 08:11:17;;;;;;;7.63;2.40;;;8.50;93.30;;;;;;5054459;28;20464;-71
2022/04/17 08:13:44;;;;;;;4.63;2.80;;;8.60;92.80;;;;;;5057460;28;20162;-71
2022/04/17 08:16:09;;;;;;;6.63;2.55;;;8.60;92.20;;;;;;5054799;28;20032;-71
2022/04/17 08:18:36;;;;;;;3.13;2.05;;;8.70;92.30;;;;;;5052620;28;20378;-71
2022/04/17 08:21:03;;;;;;;3.28;2.05;;;8.80;91.90;;;;;;5041766;28;20233;-71
2022/04/17 08:23:29;;;;;;;3.40;2.05;;;8.80;91.90;;;;;;5061485;28;20542;-71
2022/04/17 08:25:54;;;;;;;7.80;2.22;;;8.90;91.70;;;;;;5063396;28;20032;-71
2022/04/17 08:28:20;;;;;;;4.47;2.40;;;9.00;91.60;;;;;;5044686;28;20043;-71
2022/04/17 08:30:46;;;;;;;5.20;2.53;;;9.00;90.90;;;;;;5062606;28;20045;-71
2022/04/17 08:33:11;;;;;;;4.53;2.55;;;9.10;91.30;;;;;;5060449;28;20036;-71
2022/04/17 08:35:37;;;;;;;4.13;1.75;;;9.10;91.40;;;;;;5040242;28;20040;-71
2022/04/17 08:38:03;;;;;;;4.25;2.63;;;9.20;91.20;;;;;;5040356;28;20048;-71
2022/04/17 08:40:29;;;;;;;3.55;2.00;;;9.30;90.90;;;;;;5064443;28;20102;-71
2022/04/17 08:42:56;;;;;;;5.25;2.65;;;9.30;90.60;;;;;;5052858;28;20029;-71
2022/04/17 08:45:23;;;;;;;4.90;2.38;;;9.30;90.50;;;;;;5058783;28;20079;-71
2022/04/17 08:47:50;;;;;;;3.80;2.13;;;9.40;90.70;;;;;;5047791;28;20104;-71
2022/04/17 08:50:20;;;;;;;3.42;1.92;;;9.40;90.40;;;;;;5062538;28;20032;-71
2022/04/17 08:52:50;;;;;;;3.83;1.77;;;9.50;90.20;;;;;;5059102;28;20041;-71
2022/04/17 08:55:16;;;;;;;4.22;1.67;;;9.60;89.80;;;;;;5056041;28;20079;-71
2022/04/17 08:57:43;;;;;;;3.40;1.83;;;9.60;89.60;;;;;;5042860;28;20041;-71
2022/04/17 09:00:16;;;;;;;2.60;1.55;;;9.70;88.80;;;;;;5038468;28;20083;-71
2022/04/17 09:02:42;;;;;;;4.20;1.77;;;9.70;89.50;;;;;;5052677;28;20517;-71
2022/04/17 09:05:13;;;;;;;5.47;2.10;;;9.80;89.10;;;;;;5052344;28;20029;-71
2022/04/17 09:07:53;;;;;;;3.33;1.58;;;9.80;88.30;;;;;;5055028;28;20078;-71
2022/04/17 09:10:30;;;;;;;3.03;1.50;;;9.90;88.20;;;;;;5045191;28;20051;-71
2022/04/17 09:12:59;;;;;;;3.90;1.50;;;9.90;86.30;;;;;;5059523;28;20043;-71
2022/04/17 09:15:32;;;;;;;3.28;1.85;;;10.00;87.50;;;;;;5045089;28;20033;-71
2022/04/17 09:17:59;;;;;;;3.10;1.80;;;10.00;86.40;;;;;;5059066;28;20447;-71
2022/04/17 09:20:26;;;;;;;4.40;1.90;;;10.10;85.70;;;;;;5063729;28;20102;-71
2022/04/17 09:22:54;;;;;;;4.82;2.20;;;10.10;85.50;;;;;;5043819;28;20033;-71
2022/04/17 09:25:22;;;;;;;4.03;2.10;;;10.10;84.60;;;;;;5043201;28;20039;-72
2022/04/17 09:28:00;;;;;;;4.05;1.90;;;10.10;84.60;;;;;;5064359;28;20082;-71
2022/04/17 09:30:32;;;;;;;4.13;1.75;;;10.20;83.40;;;;;;5038012;28;20263;-72
2022/04/17 09:32:58;;;;;;;2.55;1.48;;;10.30;81.60;;;;;;5054905;28;20055;-72
2022/04/17 09:35:25;;;;;;;2.58;1.45;;;10.40;81.30;;;;;;5045013;28;20058;-72
2022/04/17 09:37:56;;;;;;;2.83;1.17;;;10.40;80.80;;;;;;5059633;28;20079;-71
2022/04/17 09:40:21;;;;;;;3.28;1.60;;;10.40;80.00;;;;;;5061941;28;20032;-72
2022/04/17 09:42:50;;;;;;;4.03;1.60;;;10.50;81.30;;;;;;5058992;28;20040;-71
2022/04/17 09:45:16;;;;;;;3.45;1.88;;;10.50;82.00;;;;;;5061440;28;20050;-71
2022/04/17 09:47:55;;;;;;;2.60;1.35;;;10.50;81.60;;;;;;5040165;28;20036;-73
2022/04/17 09:50:35;;;;;;;3.08;1.30;;;10.60;78.20;;;;;;5060006;28;20047;-73
2022/04/17 09:53:05;;;;;;;3.38;1.60;;;10.60;78.60;;;;;;5056944;28;20230;-73
2022/04/17 09:55:33;;;;;;;1.85;1.15;;;10.60;80.10;;;;;;5057888;28;20044;-73
2022/04/17 09:57:59;;;;;;;3.33;1.25;;;10.60;79.10;;;;;;5058049;28;20044;-73
2022/04/17 10:00:25;;;;;;;2.28;1.30;;;10.60;79.50;;;;;;5040330;28;20044;-73
2022/04/17 10:02:50;;;;;;;1.98;1.25;;;10.70;79.00;;;;;;5057987;28;20054;-72
2022/04/17 10:05:18;;;;;;;2.70;1.50;;;10.80;79.10;;;;;;5061856;28;20127;-72
2022/04/17 10:07:45;;;;;;;2.05;1.10;;;10.80;77.20;;;;;;5041471;28;20040;-73
2022/04/17 10:10:12;;;;;;;1.42;0.77;;;10.80;76.50;;;;;;5058795;28;20089;-72
2022/04/17 10:12:44;;;;;;;3.22;1.33;;;10.80;77.40;;;;;;5039662;28;20032;-73
2022/04/17 10:15:11;;;;;;;2.45;1.23;;;10.90;75.10;;;;;;5051409;28;20448;-73
2022/04/17 10:17:42;;;;;;;1.67;1.27;;;11.00;76.30;;;;;;5040614;28;20392;-73
2022/04/17 10:20:13;;;;;;;2.85;1.40;;;11.00;75.50;;;;;;5057977;28;20119;-73
2022/04/17 10:22:41;;;;;;;2.75;1.25;;;11.10;74.50;;;;;;5042437;28;20060;-73
2022/04/17 10:25:09;;;;;;;3.90;1.73;;;11.10;75.10;;;;;;5045572;28;20056;-73
2022/04/17 10:28:08;;;;;;;3.05;1.38;;;11.20;73.00;;;;;;5041241;28;20513;-73
2022/04/17 10:30:53;;;;;;;2.00;1.00;;;11.30;69.10;;;;;;5024686;28;20123;-73
2022/04/17 10:33:33;;;;;;;1.93;1.20;;;11.40;72.20;;;;;;5063479;28;20036;-73
2022/04/17 10:36:21;;;;;;;5.15;1.10;;;11.30;70.80;;;;;;5051167;28;20482;-73
2022/04/17 10:39:17;;;;;;;2.17;1.00;;;11.40;67.20;;;;;;5033294;28;20081;-73
2022/04/17 10:41:43;;;;;;;2.88;1.30;;;11.40;67.90;;;;;;5048834;28;20048;-73
2022/04/17 10:44:11;;;;;;;2.50;1.05;;;11.40;69.40;;;;;;5063980;28;20276;-73
2022/04/17 10:46:48;;;;;;;2.13;0.80;;;11.40;69.30;;;;;;5055337;28;20033;-73
2022/04/17 10:49:18;;;;;;;3.63;1.88;;;11.50;66.80;;;;;;5054372;28;20638;-73
2022/04/17 10:51:50;;;;;;;1.73;1.00;;;11.50;68.40;;;;;;5055292;28;20049;-73
2022/04/17 10:54:16;;;;;;;1.35;0.65;;;11.70;67.10;;;;;;5056520;28;20513;-73
2022/04/17 10:57:05;;;;;;;2.40;0.93;;;11.70;66.20;;;;;;5057544;28;20123;-73
2022/04/17 10:59:33;;;;;;;1.92;0.82;;;11.80;63.40;;;;;;5033699;28;20211;-73
2022/04/17 11:02:07;;;;;;;2.30;1.00;;;11.80;64.70;;;;;;5061256;28;20123;-73
2022/04/17 11:04:40;;;;;;;2.75;1.02;;;11.90;62.10;;;;;;5045511;28;20068;-73
2022/04/17 11:07:09;;;;;;;3.00;1.48;;;12.00;64.20;;;;;;5058263;28;20651;-73
2022/04/17 11:09:42;;;;;;;2.45;1.10;;;12.00;64.10;;;;;;5058023;28;20050;-73
2022/04/17 11:12:17;;;;;;;2.10;1.05;;;12.00;65.30;;;;;;5054726;28;20487;-73
2022/04/17 11:14:56;;;;;;;2.83;1.55;;;12.00;65.60;;;;;;5034942;28;20051;-73
2022/04/17 11:17:23;;;;;;;2.22;1.30;;;12.10;64.50;;;;;;5046135;28;20453;-73
2022/04/17 11:19:51;;;;;;;4.82;1.33;;;12.20;65.60;;;;;;5061187;28;20033;-73
2022/04/17 11:22:17;;;;;;;3.97;1.73;;;12.30;65.30;;;;;;5031876;28;20039;-73
2022/04/17 11:24:55;;;;;;;2.53;1.30;;;12.40;65.00;;;;;;5029529;28;20486;-73
2022/04/17 11:27:42;;;;;;;3.72;1.63;;;12.40;63.40;;;;;;5028967;28;20041;-74
2022/04/17 11:30:29;;;;;;;2.80;1.20;;;12.30;62.30;;;;;;5062344;28;20041;-73
2022/04/17 11:32:56;;;;;;;3.08;1.35;;;12.30;63.70;;;;;;5050109;28;20119;-73
2022/04/17 11:35:24;;;;;;;3.75;1.75;;;12.40;63.90;;;;;;5062986;28;20392;-73
2022/04/17 11:38:01;;;;;;;2.38;1.38;;;12.40;63.50;;;;;;5045685;28;20049;-73
2022/04/17 11:40:29;;;;;;;3.15;1.50;;;12.40;63.20;;;;;;5045696;28;20044;-73
2022/04/17 11:42:56;;;;;;;3.17;1.13;;;12.40;63.20;;;;;;5048708;28;20047;-73
2022/04/17 11:45:27;;;;;;;5.05;1.33;;;12.40;62.70;;;;;;5065493;28;20520;-74
2022/04/17 11:47:54;;;;;;;2.55;1.38;;;12.50;62.90;;;;;;5065857;28;20043;-73
2022/04/17 11:50:23;;;;;;;3.92;1.48;;;12.50;63.50;;;;;;5048517;28;20032;-73
2022/04/17 11:52:53;;;;;;;2.50;1.17;;;12.50;64.00;;;;;;5046983;28;20091;-73
2022/04/17 11:55:30;;;;;;;1.60;1.30;;;12.50;62.60;;;;;;5048240;28;20051;-73
2022/04/17 11:57:57;;;;;;;2.28;1.08;;;12.50;61.60;;;;;;5045765;28;20082;-73
2022/04/17 12:00:24;;;;;;;2.80;1.42;;;12.60;63.20;;;;;;5042483;28;20486;-73
2022/04/17 12:02:55;;;;;;;5.22;2.20;;;12.70;63.30;;;;;;5058205;28;20032;-74
2022/04/17 12:05:21;;;;;;;2.50;1.52;;;12.80;62.60;;;;;;5062152;28;20037;-73
2022/04/17 12:08:01;;;;;;;2.58;1.25;;;12.90;63.00;;;;;;5043054;28;20428;-74
2022/04/17 12:10:26;;;;;;;5.18;1.70;;;13.00;61.40;;;;;;5058502;28;20075;-73
2022/04/17 12:12:52;;;;;;;2.40;1.42;;;13.00;63.00;;;;;;5038777;28;20410;-73
2022/04/17 12:15:17;;;;;;;4.18;1.85;;;13.10;63.00;;;;;;5061757;28;20049;-74
2022/04/17 12:17:43;;;;;;;3.20;1.88;;;13.10;62.40;;;;;;5042611;28;20041;-74
2022/04/17 12:20:13;;;;;;;3.08;1.30;;;13.00;62.10;;;;;;5040319;28;20486;-72
2022/04/17 12:22:42;;;;;;;3.42;1.88;;;13.00;61.90;;;;;;5059175;28;20032;-73
2022/04/17 12:25:22;;;;;;;2.92;1.42;;;13.10;62.00;;;;;;5067042;28;20067;-73
2022/04/17 12:27:49;;;;;;;3.72;1.90;;;13.10;61.50;;;;;;5068527;28;20055;-73
2022/04/17 12:30:20;;;;;;;3.22;1.60;;;13.10;59.80;;;;;;5067719;28;20431;-73
2022/04/17 12:32:46;;;;;;;2.95;1.70;;;13.10;60.00;;;;;;5068347;28;20047;-73
2022/04/17 12:35:20;;;;;;;4.75;1.80;;;13.20;60.30;;;;;;5052089;28;20512;-73
2022/04/17 12:37:45;;;;;;;4.03;1.55;;;13.20;61.00;;;;;;5047701;28;20611;-73
2022/04/17 12:40:14;;;;;;;3.20;1.75;;;13.30;60.20;;;;;;5065954;28;20371;-73
2022/04/17 12:42:40;;;;;;;4.80;2.20;;;13.20;59.90;;;;;;5068546;28;20089;-73
2022/04/17 12:45:08;;;;;;;3.35;1.45;;;13.20;59.80;;;;;;5065517;28;20064;-73
2022/04/17 12:47:36;;;;;;;3.80;1.95;;;13.20;60.50;;;;;;5031644;28;20037;-73
2022/04/17 12:50:07;;;;;;;4.95;1.88;;;13.20;60.30;;;;;;5061915;28;20045;-73
2022/04/17 12:52:33;;;;;;;4.32;1.75;;;13.30;60.00;;;;;;5046590;28;20029;-73
2022/04/17 12:55:12;;;;;;;3.50;1.80;;;13.30;60.00;;;;;;5033551;28;20032;-73
2022/04/17 12:57:38;;;;;;;4.88;1.90;;;13.30;58.90;;;;;;5048307;28;20361;-73
2022/04/17 13:00:17;;;;;;;2.58;1.20;;;13.40;59.40;;;;;;5035762;28;20128;-73
2022/04/17 13:02:43;;;;;;;4.05;1.88;;;13.40;58.80;;;;;;5067606;28;20064;-73
2022/04/17 13:05:20;;;;;;;2.72;1.60;;;13.40;58.30;;;;;;5047968;28;20498;-73